Terminal Aerodrome Forecast
Issued by NWS

Home | Current Version | Previous Version | Text Only | Print | Product List | Glossary On
Versions: 1 2 3 4 5 6 7 8 9 10 11 12 13 14 15 16 17 18 19 20 21 22 23 24 25
000
FTUS41 KBUF 222000 AAA
TAFIAG
TAF AMD
KIAG 222037Z 2221/2318 10004KT P6SM SCT100 BKN250
     FM230100 13005KT P6SM BKN040 BKN200
     FM230400 13005KT P6SM BKN110 OVC130
     FM230800 11004KT P6SM VCSH BKN035 OVC050=

USA.gov is the U.S. government's official web portal to all federal, state and local government web resources and services.